sensor_id;sensor_type;location;lat;lon;timestamp;pressure;altitude;pressure_sealevel;temperature;humidity
42945;BME280;28584;42.636;23.294;2023-05-21T00:00:09;162089.03;;;13.27;100.00
42945;BME280;28584;42.636;23.294;2023-05-21T00:02:36;162089.03;;;13.27;100.00
42945;BME280;28584;42.636;23.294;2023-05-21T00:05:02;162131.81;;;13.43;100.00
42945;BME280;28584;42.636;23.294;2023-05-21T00:07:28;162102.38;;;13.32;100.00
42945;BME280;28584;42.636;23.294;2023-05-21T00:09:55;162113.09;;;13.36;100.00
42945;BME280;28584;42.636;23.294;2023-05-21T00:12:21;162075.59;;;13.22;100.00
42945;BME280;28584;42.636;23.294;2023-05-21T00:14:46;162050.19;;;13.12;100.00
42945;BME280;28584;42.636;23.294;2023-05-21T00:17:12;162051.53;;;13.13;100.00
42945;BME280;28584;42.636;23.294;2023-05-21T00:19:37;162008.63;;;12.97;100.00
42945;BME280;28584;42.636;23.294;2023-05-21T00:22:04;161965.84;;;12.81;100.00
42945;BME280;28584;42.636;23.294;2023-05-21T00:24:29;161933.69;;;12.69;100.00
42945;BME280;28584;42.636;23.294;2023-05-21T00:26:55;161920.34;;;12.64;100.00
42945;BME280;28584;42.636;23.294;2023-05-21T00:29:21;161861.44;;;12.42;100.00
42945;BME280;28584;42.636;23.294;2023-05-21T00:31:47;161815.97;;;12.25;100.00
42945;BME280;28584;42.636;23.294;2023-05-21T00:34:14;161822.69;;;12.27;100.00
42945;BME280;28584;42.636;23.294;2023-05-21T00:36:40;161749.09;;;12.00;100.00
42945;BME280;28584;42.636;23.294;2023-05-21T00:39:10;161856.13;;;12.40;100.00
42945;BME280;28584;42.636;23.294;2023-05-21T00:41:35;161798.59;;;12.18;100.00
42945;BME280;28584;42.636;23.294;2023-05-21T00:44:02;161762.50;;;12.05;100.00
42945;BME280;28584;42.636;23.294;2023-05-21T00:46:27;161698.28;;;11.81;100.00
42945;BME280;28584;42.636;23.294;2023-05-21T00:48:53;161709.00;;;11.85;100.00
42945;BME280;28584;42.636;23.294;2023-05-21T00:51:19;161757.13;;;12.03;100.00
42945;BME280;28584;42.636;23.294;2023-05-21T00:53:49;161711.66;;;11.86;100.00
42945;BME280;28584;42.636;23.294;2023-05-21T00:56:15;161658.16;;;11.66;100.00
42945;BME280;28584;42.636;23.294;2023-05-21T00:58:41;161652.81;;;11.64;100.00
42945;BME280;28584;42.636;23.294;2023-05-21T01:01:07;161676.88;;;11.73;100.00
42945;BME280;28584;42.636;23.294;2023-05-21T01:03:38;161631.34;;;11.56;100.00
42945;BME280;28584;42.636;23.294;2023-05-21T01:06:06;161688.91;;;11.77;100.00
42945;BME280;28584;42.636;23.294;2023-05-21T01:08:32;161714.31;;;11.87;100.00
42945;BME280;28584;42.636;23.294;2023-05-21T01:10:59;161770.47;;;12.08;100.00
42945;BME280;28584;42.636;23.294;2023-05-21T01:13:25;161810.63;;;12.23;100.00
42945;BME280;28584;42.636;23.294;2023-05-21T01:15:52;161826.69;;;12.29;100.00
42945;BME280;28584;42.636;23.294;2023-05-21T01:18:18;161842.72;;;12.35;100.00
42945;BME280;28584;42.636;23.294;2023-05-21T01:20:45;161848.09;;;12.37;100.00
42945;BME280;28584;42.636;23.294;2023-05-21T01:23:16;161882.88;;;12.50;100.00
42945;BME280;28584;42.636;23.294;2023-05-21T01:25:42;161896.25;;;12.55;100.00
42945;BME280;28584;42.636;23.294;2023-05-21T01:28:07;161901.63;;;12.57;100.00
42945;BME280;28584;42.636;23.294;2023-05-21T01:30:34;161906.94;;;12.59;100.00
42945;BME280;28584;42.636;23.294;2023-05-21T01:33:09;161923.00;;;12.65;100.00
42945;BME280;28584;42.636;23.294;2023-05-21T01:36:03;161909.59;;;12.60;100.00
42945;BME280;28584;42.636;23.294;2023-05-21T01:38:43;161874.84;;;12.47;100.00
42945;BME280;28584;42.636;23.294;2023-05-21T01:41:13;161865.47;;;12.43;100.00
42945;BME280;28584;42.636;23.294;2023-05-21T01:43:44;161832.03;;;12.31;100.00
42945;BME280;28584;42.636;23.294;2023-05-21T01:46:13;161838.69;;;12.33;100.00
42945;BME280;28584;42.636;23.294;2023-05-21T01:48:42;161849.38;;;12.37;100.00
42945;BME280;28584;42.636;23.294;2023-05-21T01:51:07;161767.81;;;12.07;100.00
42945;BME280;28584;42.636;23.294;2023-05-21T01:53:33;161833.38;;;12.31;100.00
42945;BME280;28584;42.636;23.294;2023-05-21T01:55:59;161809.28;;;12.22;100.00
42945;BME280;28584;42.636;23.294;2023-05-21T01:58:24;161805.25;;;12.21;100.00
42945;BME280;28584;42.636;23.294;2023-05-21T02:00:50;161722.34;;;11.90;100.00
42945;BME280;28584;42.636;23.294;2023-05-21T02:03:17;161730.38;;;11.93;100.00
42945;BME280;28584;42.636;23.294;2023-05-21T02:05:43;161742.41;;;11.97;100.00
42945;BME280;28584;42.636;23.294;2023-05-21T02:08:08;161757.13;;;12.03;100.00
42945;BME280;28584;42.636;23.294;2023-05-21T02:10:34;161781.22;;;12.12;100.00
42945;BME280;28584;42.636;23.294;2023-05-21T02:13:00;161759.78;;;12.04;100.00
42945;BME280;28584;42.636;23.294;2023-05-21T02:15:25;161741.06;;;11.97;100.00
42945;BME280;28584;42.636;23.294;2023-05-21T02:17:51;161782.50;;;12.12;100.00
42945;BME280;28584;42.636;23.294;2023-05-21T02:20:17;161754.47;;;12.02;100.00
42945;BME280;28584;42.636;23.294;2023-05-21T02:22:45;161676.88;;;11.73;100.00
42945;BME280;28584;42.636;23.294;2023-05-21T02:25:12;161639.38;;;11.59;100.00
42945;BME280;28584;42.636;23.294;2023-05-21T02:27:39;161604.66;;;11.46;100.00
42945;BME280;28584;42.636;23.294;2023-05-21T02:30:08;161588.59;;;11.40;100.00
42945;BME280;28584;42.636;23.294;2023-05-21T02:32:34;161579.22;;;11.36;100.00
42945;BME280;28584;42.636;23.294;2023-05-21T02:35:01;161588.59;;;11.40;100.00
42945;BME280;28584;42.636;23.294;2023-05-21T02:37:28;161564.53;;;11.31;100.00
42945;BME280;28584;42.636;23.294;2023-05-21T02:39:54;161580.56;;;11.37;100.00
42945;BME280;28584;42.636;23.294;2023-05-21T02:42:23;161609.97;;;11.48;100.00
42945;BME280;28584;42.636;23.294;2023-05-21T02:44:49;161618.00;;;11.51;100.00
42945;BME280;28584;42.636;23.294;2023-05-21T02:47:15;161639.38;;;11.59;100.00
42945;BME280;28584;42.636;23.294;2023-05-21T02:49:40;161659.50;;;11.66;100.00
42945;BME280;28584;42.636;23.294;2023-05-21T02:52:06;161682.25;;;11.75;100.00
42945;BME280;28584;42.636;23.294;2023-05-21T02:54:31;161692.91;;;11.79;100.00
42945;BME280;28584;42.636;23.294;2023-05-21T02:56:57;161719.66;;;11.89;100.00
42945;BME280;28584;42.636;23.294;2023-05-21T02:59:22;161759.78;;;12.04;100.00
42945;BME280;28584;42.636;23.294;2023-05-21T03:01:48;161797.22;;;12.18;100.00
42945;BME280;28584;42.636;23.294;2023-05-21T03:04:13;161787.88;;;12.14;100.00
42945;BME280;28584;42.636;23.294;2023-05-21T03:06:39;161858.78;;;12.41;100.00
42945;BME280;28584;42.636;23.294;2023-05-21T03:09:05;161882.88;;;12.50;100.00
42945;BME280;28584;42.636;23.294;2023-05-21T03:11:30;161885.53;;;12.51;100.00
42945;BME280;28584;42.636;23.294;2023-05-21T03:13:56;161893.56;;;12.54;100.00
42945;BME280;28584;42.636;23.294;2023-05-21T03:16:21;161944.41;;;12.73;100.00
42945;BME280;28584;42.636;23.294;2023-05-21T03:18:47;161940.38;;;12.71;100.00
42945;BME280;28584;42.636;23.294;2023-05-21T03:21:12;161952.44;;;12.76;100.00
42945;BME280;28584;42.636;23.294;2023-05-21T03:23:40;161993.91;;;12.91;100.00
42945;BME280;28584;42.636;23.294;2023-05-21T03:26:06;162026.13;;;13.03;100.00
42945;BME280;28584;42.636;23.294;2023-05-21T03:28:32;162094.34;;;13.29;100.00
42945;BME280;28584;42.636;23.294;2023-05-21T03:30:57;162159.97;;;13.53;100.00
42945;BME280;28584;42.636;23.294;2023-05-21T03:33:23;162186.75;;;13.63;100.00
42945;BME280;28584;42.636;23.294;2023-05-21T03:35:48;162213.53;;;13.73;100.00
42945;BME280;28584;42.636;23.294;2023-05-21T03:38:13;162238.97;;;13.83;100.00
42945;BME280;28584;42.636;23.294;2023-05-21T03:40:39;162244.34;;;13.85;100.00
42945;BME280;28584;42.636;23.294;2023-05-21T03:43:04;162265.78;;;13.93;100.00
42945;BME280;28584;42.636;23.294;2023-05-21T03:45:30;162289.91;;;14.02;100.00
42945;BME280;28584;42.636;23.294;2023-05-21T03:47:55;162327.41;;;14.16;100.00
42945;BME280;28584;42.636;23.294;2023-05-21T03:50:20;162332.72;;;14.18;100.00
42945;BME280;28584;42.636;23.294;2023-05-21T03:52:46;162336.75;;;14.20;100.00
42945;BME280;28584;42.636;23.294;2023-05-21T03:55:11;162383.72;;;14.37;100.00
42945;BME280;28584;42.636;23.294;2023-05-21T03:57:36;162464.06;;;14.67;100.00
42945;BME280;28584;42.636;23.294;2023-05-21T04:00:02;162496.28;;;14.79;100.00
42945;BME280;28584;42.636;23.294;2023-05-21T04:02:30;162458.75;;;14.65;100.00
42945;BME280;28584;42.636;23.294;2023-05-21T04:04:56;162437.28;;;14.57;100.00
42945;BME280;28584;42.636;23.294;2023-05-21T04:07:21;162426.56;;;14.53;100.00
42945;BME280;28584;42.636;23.294;2023-05-21T04:09:47;162389.03;;;14.39;100.00
42945;BME280;28584;42.636;23.294;2023-05-21T04:12:12;162422.53;;;14.52;100.00
42945;BME280;28584;42.636;23.294;2023-05-21T04:14:38;162488.22;;;14.76;100.00
42945;BME280;28584;42.636;23.294;2023-05-21T04:17:04;162521.72;;;14.89;100.00
42945;BME280;28584;42.636;23.294;2023-05-21T04:19:30;162508.34;;;14.84;100.00
42945;BME280;28584;42.636;23.294;2023-05-21T04:21:55;162458.75;;;14.65;100.00
42945;BME280;28584;42.636;23.294;2023-05-21T04:24:23;162488.22;;;14.76;100.00
42945;BME280;28584;42.636;23.294;2023-05-21T04:26:48;162512.38;;;14.85;100.00
42945;BME280;28584;42.636;23.294;2023-05-21T04:29:14;162520.38;;;14.88;100.00
42945;BME280;28584;42.636;23.294;2023-05-21T04:31:42;162540.50;;;14.96;100.00
42945;BME280;28584;42.636;23.294;2023-05-21T04:34:08;162574.00;;;15.08;100.00
42945;BME280;28584;42.636;23.294;2023-05-21T04:36:33;162590.09;;;15.14;100.00
42945;BME280;28584;42.636;23.294;2023-05-21T04:38:59;162595.41;;;15.16;100.00
42945;BME280;28584;42.636;23.294;2023-05-21T04:41:24;162580.69;;;15.11;100.00
42945;BME280;28584;42.636;23.294;2023-05-21T04:43:50;162595.41;;;15.16;100.00
42945;BME280;28584;42.636;23.294;2023-05-21T04:46:20;162614.25;;;15.23;100.00
42945;BME280;28584;42.636;23.294;2023-05-21T04:48:52;162651.81;;;15.37;100.00
42945;BME280;28584;42.636;23.294;2023-05-21T04:51:21;162655.84;;;15.39;100.00
42945;BME280;28584;42.636;23.294;2023-05-21T04:53:48;162756.41;;;15.76;100.00
42945;BME280;28584;42.636;23.294;2023-05-21T04:56:15;162807.34;;;15.95;97.51
42945;BME280;28584;42.636;23.294;2023-05-21T04:58:41;162890.53;;;16.26;89.57
42945;BME280;28584;42.636;23.294;2023-05-21T05:01:07;162871.75;;;16.19;86.65
42945;BME280;28584;42.636;23.294;2023-05-21T05:03:33;162898.59;;;16.29;84.49
42945;BME280;28584;42.636;23.294;2023-05-21T05:05:58;162930.81;;;16.41;82.54
42945;BME280;28584;42.636;23.294;2023-05-21T05:08:24;162920.03;;;16.37;81.58
42945;BME280;28584;42.636;23.294;2023-05-21T05:10:50;162960.38;;;16.53;80.67
42945;BME280;28584;42.636;23.294;2023-05-21T05:13:15;163004.66;;;16.69;81.90
42945;BME280;28584;42.636;23.294;2023-05-21T05:15:40;162981.84;;;16.61;76.80
42945;BME280;28584;42.636;23.294;2023-05-21T05:18:06;162983.19;;;16.61;75.91
42945;BME280;28584;42.636;23.294;2023-05-21T05:20:32;163027.47;;;16.78;75.52
42945;BME280;28584;42.636;23.294;2023-05-21T05:22:58;163070.44;;;16.94;73.89
42945;BME280;28584;42.636;23.294;2023-05-21T05:25:23;163118.75;;;17.12;71.65
42945;BME280;28584;42.636;23.294;2023-05-21T05:27:49;163228.91;;;17.53;68.77
42945;BME280;28584;42.636;23.294;2023-05-21T05:30:14;163243.66;;;17.58;65.95
42945;BME280;28584;42.636;23.294;2023-05-21T05:32:40;163226.19;;;17.52;66.57
42945;BME280;28584;42.636;23.294;2023-05-21T05:35:06;163258.44;;;17.64;66.24
42945;BME280;28584;42.636;23.294;2023-05-21T05:37:31;163309.44;;;17.83;66.31
42945;BME280;28584;42.636;23.294;2023-05-21T05:39:57;163318.88;;;17.86;63.87
42945;BME280;28584;42.636;23.294;2023-05-21T05:42:23;163344.38;;;17.96;63.25
42945;BME280;28584;42.636;23.294;2023-05-21T05:44:48;163380.69;;;18.09;62.26
42945;BME280;28584;42.636;23.294;2023-05-21T05:47:15;163454.59;;;18.37;62.81
42945;BME280;28584;42.636;23.294;2023-05-21T05:49:41;163431.72;;;18.28;62.31
42945;BME280;28584;42.636;23.294;2023-05-21T05:52:06;163347.06;;;17.97;63.02
42945;BME280;28584;42.636;23.294;2023-05-21T05:54:32;163296.03;;;17.78;63.61
42945;BME280;28584;42.636;23.294;2023-05-21T05:56:57;163257.09;;;17.63;63.96
42945;BME280;28584;42.636;23.294;2023-05-21T05:59:23;163316.19;;;17.85;64.34
42945;BME280;28584;42.636;23.294;2023-05-21T06:01:48;163408.88;;;18.20;64.23
42945;BME280;28584;42.636;23.294;2023-05-21T06:04:13;163437.09;;;18.30;63.63
42945;BME280;28584;42.636;23.294;2023-05-21T06:06:39;163392.72;;;18.14;63.58
42945;BME280;28584;42.636;23.294;2023-05-21T06:09:04;163317.50;;;17.86;64.12
42945;BME280;28584;42.636;23.294;2023-05-21T06:11:30;163341.72;;;17.95;63.98
42945;BME280;28584;42.636;23.294;2023-05-21T06:13:55;163418.31;;;18.23;63.66
42945;BME280;28584;42.636;23.294;2023-05-21T06:16:21;163457.28;;;18.38;62.82
42945;BME280;28584;42.636;23.294;2023-05-21T06:18:46;163614.53;;;18.96;61.16
42945;BME280;28584;42.636;23.294;2023-05-21T06:21:12;163703.28;;;19.30;58.63
42945;BME280;28584;42.636;23.294;2023-05-21T06:23:37;163837.81;;;19.80;57.26
42945;BME280;28584;42.636;23.294;2023-05-21T06:26:03;163855.25;;;19.86;55.82
42945;BME280;28584;42.636;23.294;2023-05-21T06:28:28;163933.31;;;20.15;55.11
42945;BME280;28584;42.636;23.294;2023-05-21T06:30:54;164085.38;;;20.72;54.82
42945;BME280;28584;42.636;23.294;2023-05-21T06:33:19;164140.56;;;20.92;54.36
42945;BME280;28584;42.636;23.294;2023-05-21T06:35:45;164276.59;;;21.43;53.77
42945;BME280;28584;42.636;23.294;2023-05-21T06:38:11;164265.81;;;21.39;51.88
42945;BME280;28584;42.636;23.294;2023-05-21T06:40:36;164105.56;;;20.79;53.04
42945;BME280;28584;42.636;23.294;2023-05-21T06:43:01;163972.34;;;20.30;54.11
42945;BME280;28584;42.636;23.294;2023-05-21T06:45:28;163875.47;;;19.94;54.98
42945;BME280;28584;42.636;23.294;2023-05-21T06:47:54;163833.75;;;19.78;55.38
42945;BME280;28584;42.636;23.294;2023-05-21T06:50:19;163744.97;;;19.45;55.91
42945;BME280;28584;42.636;23.294;2023-05-21T06:52:45;163693.91;;;19.26;56.57
42945;BME280;28584;42.636;23.294;2023-05-21T06:55:10;163689.81;;;19.25;57.01
42945;BME280;28584;42.636;23.294;2023-05-21T06:57:37;163849.84;;;19.84;56.27
42945;BME280;28584;42.636;23.294;2023-05-21T07:00:03;164054.41;;;20.60;54.32
42945;BME280;28584;42.636;23.294;2023-05-21T07:02:29;164124.41;;;20.86;51.84
42945;BME280;28584;42.636;23.294;2023-05-21T07:04:54;164172.91;;;21.04;53.53
42945;BME280;28584;42.636;23.294;2023-05-21T07:07:20;164259.06;;;21.36;53.38
42945;BME280;28584;42.636;23.294;2023-05-21T07:09:46;164405.91;;;21.91;51.13
42945;BME280;28584;42.636;23.294;2023-05-21T07:12:11;164552.75;;;22.46;48.90
42945;BME280;28584;42.636;23.294;2023-05-21T07:14:37;164516.38;;;22.32;47.89
42945;BME280;28584;42.636;23.294;2023-05-21T07:17:02;164593.19;;;22.61;49.18
42945;BME280;28584;42.636;23.294;2023-05-21T07:19:27;164595.94;;;22.62;48.08
42945;BME280;28584;42.636;23.294;2023-05-21T07:21:53;164692.94;;;22.98;47.74
42945;BME280;28584;42.636;23.294;2023-05-21T07:24:18;164725.25;;;23.10;45.87
42945;BME280;28584;42.636;23.294;2023-05-21T07:26:44;164661.94;;;22.86;46.83
42945;BME280;28584;42.636;23.294;2023-05-21T07:29:10;164682.16;;;22.94;47.81
42945;BME280;28584;42.636;23.294;2023-05-21T07:31:35;164664.63;;;22.87;47.09
42945;BME280;28584;42.636;23.294;2023-05-21T07:34:00;164543.28;;;22.42;48.43
42945;BME280;28584;42.636;23.294;2023-05-21T07:36:26;164544.66;;;22.43;49.29
42945;BME280;28584;42.636;23.294;2023-05-21T07:38:51;164555.44;;;22.47;47.60
42945;BME280;28584;42.636;23.294;2023-05-21T07:41:17;164383.03;;;21.83;47.99
42945;BME280;28584;42.636;23.294;2023-05-21T07:43:42;164253.69;;;21.34;48.91
42945;BME280;28584;42.636;23.294;2023-05-21T07:46:08;164105.56;;;20.79;50.31
42945;BME280;28584;42.636;23.294;2023-05-21T07:48:33;164067.88;;;20.65;51.58
42945;BME280;28584;42.636;23.294;2023-05-21T07:50:59;164054.41;;;20.60;52.13
42945;BME280;28584;42.636;23.294;2023-05-21T07:53:24;164237.53;;;21.28;49.71
42945;BME280;28584;42.636;23.294;2023-05-21T07:55:50;164286.00;;;21.46;49.99
42945;BME280;28584;42.636;23.294;2023-05-21T07:58:15;164356.09;;;21.73;49.30
42945;BME280;28584;42.636;23.294;2023-05-21T08:00:42;164397.84;;;21.88;49.16
42945;BME280;28584;42.636;23.294;2023-05-21T08:03:09;164329.09;;;21.63;49.91
42945;BME280;28584;42.636;23.294;2023-05-21T08:05:36;164252.34;;;21.34;49.59
42945;BME280;28584;42.636;23.294;2023-05-21T08:08:02;164191.75;;;21.11;50.88
42945;BME280;28584;42.636;23.294;2023-05-21T08:10:29;164178.31;;;21.06;51.86
42945;BME280;28584;42.636;23.294;2023-05-21T08:12:54;164143.31;;;20.93;51.16
42945;BME280;28584;42.636;23.294;2023-05-21T08:15:20;164020.78;;;20.48;50.92
42945;BME280;28584;42.636;23.294;2023-05-21T08:17:46;164106.94;;;20.80;51.19
42945;BME280;28584;42.636;23.294;2023-05-21T08:20:13;164171.59;;;21.04;50.87
42945;BME280;28584;42.636;23.294;2023-05-21T08:22:39;164224.09;;;21.23;51.06
42945;BME280;28584;42.636;23.294;2023-05-21T08:25:06;164259.06;;;21.36;51.16
42945;BME280;28584;42.636;23.294;2023-05-21T08:27:32;164360.13;;;21.74;50.14
42945;BME280;28584;42.636;23.294;2023-05-21T08:29:57;164290.03;;;21.48;48.15
42945;BME280;28584;42.636;23.294;2023-05-21T08:32:22;164170.22;;;21.03;47.78
42945;BME280;28584;42.636;23.294;2023-05-21T08:34:48;164191.75;;;21.11;48.30
42945;BME280;28584;42.636;23.294;2023-05-21T08:37:13;164193.13;;;21.12;47.76
42945;BME280;28584;42.636;23.294;2023-05-21T08:39:38;164073.25;;;20.67;47.41
42945;BME280;28584;42.636;23.294;2023-05-21T08:42:14;164070.56;;;20.66;48.52
42945;BME280;28584;42.636;23.294;2023-05-21T08:44:47;164077.28;;;20.69;46.91
42945;BME280;28584;42.636;23.294;2023-05-21T08:47:17;164164.81;;;21.01;46.91
42945;BME280;28584;42.636;23.294;2023-05-21T08:49:46;164361.44;;;21.75;46.93
42945;BME280;28584;42.636;23.294;2023-05-21T08:52:14;164559.53;;;22.48;44.96
42945;BME280;28584;42.636;23.294;2023-05-21T08:54:40;164597.25;;;22.62;44.16
42945;BME280;28584;42.636;23.294;2023-05-21T08:57:06;164458.44;;;22.11;44.86
42945;BME280;28584;42.636;23.294;2023-05-21T08:59:32;164454.41;;;22.09;45.75
42945;BME280;28584;42.636;23.294;2023-05-21T09:01:57;164617.47;;;22.70;46.47
42945;BME280;28584;42.636;23.294;2023-05-21T09:04:24;164827.78;;;23.48;45.09
42945;BME280;28584;42.636;23.294;2023-05-21T09:06:50;164771.16;;;23.27;45.44
42945;BME280;28584;42.636;23.294;2023-05-21T09:09:39;164424.78;;;21.98;46.73
42945;BME280;28584;42.636;23.294;2023-05-21T09:12:06;164321.00;;;21.59;47.61
42945;BME280;28584;42.636;23.294;2023-05-21T09:14:33;164245.63;;;21.31;47.80
42945;BME280;28584;42.636;23.294;2023-05-21T09:16:59;164493.47;;;22.24;48.67
42945;BME280;28584;42.636;23.294;2023-05-21T09:19:25;164480.00;;;22.19;45.52
42945;BME280;28584;42.636;23.294;2023-05-21T09:21:51;164388.38;;;21.85;45.12
42945;BME280;28584;42.636;23.294;2023-05-21T09:24:22;164350.63;;;21.71;45.93
42945;BME280;28584;42.636;23.294;2023-05-21T09:26:47;164480.00;;;22.19;45.43
42945;BME280;28584;42.636;23.294;2023-05-21T09:29:12;164760.38;;;23.23;42.34
42945;BME280;28584;42.636;23.294;2023-05-21T09:31:42;164771.16;;;23.27;41.05
42945;BME280;28584;42.636;23.294;2023-05-21T09:34:08;164637.72;;;22.77;39.19
42945;BME280;28584;42.636;23.294;2023-05-21T09:36:36;164709.13;;;23.04;39.19
42945;BME280;28584;42.636;23.294;2023-05-21T09:39:02;164647.13;;;22.81;38.89
42945;BME280;28584;42.636;23.294;2023-05-21T09:41:33;164753.59;;;23.20;39.98
42945;BME280;28584;42.636;23.294;2023-05-21T09:44:01;164817.00;;;23.44;37.27
42945;BME280;28584;42.636;23.294;2023-05-21T09:46:36;164715.84;;;23.06;37.49
42945;BME280;28584;42.636;23.294;2023-05-21T09:49:01;164734.72;;;23.13;37.64
42945;BME280;28584;42.636;23.294;2023-05-21T09:51:27;164655.22;;;22.84;37.79
42945;BME280;28584;42.636;23.294;2023-05-21T09:53:55;164738.78;;;23.15;38.20
42945;BME280;28584;42.636;23.294;2023-05-21T09:56:27;164892.50;;;23.72;37.65
42945;BME280;28584;42.636;23.294;2023-05-21T09:58:59;164838.59;;;23.52;36.95
42945;BME280;28584;42.636;23.294;2023-05-21T10:01:26;164861.53;;;23.60;37.21
42945;BME280;28584;42.636;23.294;2023-05-21T10:03:55;164884.41;;;23.69;36.70
42945;BME280;28584;42.636;23.294;2023-05-21T10:06:24;164807.59;;;23.40;36.94
42945;BME280;28584;42.636;23.294;2023-05-21T10:08:53;164815.69;;;23.43;37.44
42945;BME280;28584;42.636;23.294;2023-05-21T10:11:21;164827.78;;;23.48;37.14
42945;BME280;28584;42.636;23.294;2023-05-21T10:13:54;165067.88;;;24.37;37.34
42945;BME280;28584;42.636;23.294;2023-05-21T10:16:20;165242.00;;;25.02;35.58
42945;BME280;28584;42.636;23.294;2023-05-21T10:18:46;165169.09;;;24.75;35.82
42945;BME280;28584;42.636;23.294;2023-05-21T10:21:13;165124.53;;;24.58;35.94
42945;BME280;28584;42.636;23.294;2023-05-21T10:23:40;165094.88;;;24.47;35.03
42945;BME280;28584;42.636;23.294;2023-05-21T10:26:07;165080.03;;;24.42;35.49
42945;BME280;28584;42.636;23.294;2023-05-21T10:28:32;164856.09;;;23.58;36.60
42945;BME280;28584;42.636;23.294;2023-05-21T10:30:58;164639.03;;;22.78;37.96
42945;BME280;28584;42.636;23.294;2023-05-21T10:33:25;164482.66;;;22.20;38.56
42945;BME280;28584;42.636;23.294;2023-05-21T10:35:52;164457.09;;;22.10;40.18
42945;BME280;28584;42.636;23.294;2023-05-21T10:38:18;164383.03;;;21.83;39.99
42945;BME280;28584;42.636;23.294;2023-05-21T10:40:46;164397.84;;;21.88;41.02
42945;BME280;28584;42.636;23.294;2023-05-21T10:46:16;164566.25;;;22.51;40.28
42945;BME280;28584;42.636;23.294;2023-05-21T10:51:58;164598.63;;;22.63;39.32
42945;BME280;28584;42.636;23.294;2023-05-21T10:54:45;164547.34;;;22.44;39.72
42945;BME280;28584;42.636;23.294;2023-05-21T11:00:09;164639.03;;;22.78;41.00
42945;BME280;28584;42.636;23.294;2023-05-21T11:02:37;164490.75;;;22.23;40.85
42945;BME280;28584;42.636;23.294;2023-05-21T11:05:03;164337.19;;;21.66;42.06
42945;BME280;28584;42.636;23.294;2023-05-21T11:07:51;164202.50;;;21.15;42.81
42945;BME280;28584;42.636;23.294;2023-05-21T11:10:31;164108.25;;;20.80;43.97
42945;BME280;28584;42.636;23.294;2023-05-21T11:13:15;164050.41;;;20.59;44.53
42945;BME280;28584;42.636;23.294;2023-05-21T11:18:21;164039.59;;;20.55;45.29
42945;BME280;28584;42.636;23.294;2023-05-21T11:20:50;164084.06;;;20.71;45.18
42945;BME280;28584;42.636;23.294;2023-05-21T11:23:15;164132.50;;;20.89;45.30
42945;BME280;28584;42.636;23.294;2023-05-21T11:25:41;164244.25;;;21.31;44.55
42945;BME280;28584;42.636;23.294;2023-05-21T11:28:06;164361.44;;;21.75;43.55
42945;BME280;28584;42.636;23.294;2023-05-21T11:30:33;164570.28;;;22.52;43.72
42945;BME280;28584;42.636;23.294;2023-05-21T11:35:58;164496.16;;;22.25;41.88
42945;BME280;28584;42.636;23.294;2023-05-21T11:38:30;164412.66;;;21.94;43.10
42945;BME280;28584;42.636;23.294;2023-05-21T11:41:00;164321.00;;;21.59;43.68
42945;BME280;28584;42.636;23.294;2023-05-21T11:43:27;164213.31;;;21.19;43.91
42945;BME280;28584;42.636;23.294;2023-05-21T11:45:53;164131.13;;;20.89;44.66
42945;BME280;28584;42.636;23.294;2023-05-21T11:48:20;164080.00;;;20.70;45.20
42945;BME280;28584;42.636;23.294;2023-05-21T11:50:48;164030.22;;;20.51;45.67
42945;BME280;28584;42.636;23.294;2023-05-21T11:53:13;164015.41;;;20.46;46.29
42945;BME280;28584;42.636;23.294;2023-05-21T11:55:39;164014.06;;;20.45;46.79
42945;BME280;28584;42.636;23.294;2023-05-21T11:58:12;163999.25;;;20.40;46.96
42945;BME280;28584;42.636;23.294;2023-05-21T12:00:39;163992.53;;;20.37;46.69
42945;BME280;28584;42.636;23.294;2023-05-21T12:03:04;163976.38;;;20.31;47.48
42945;BME280;28584;42.636;23.294;2023-05-21T12:05:45;163965.63;;;20.27;46.74
42945;BME280;28584;42.636;23.294;2023-05-21T12:08:11;163946.78;;;20.20;46.91
42945;BME280;28584;42.636;23.294;2023-05-21T12:10:36;163835.06;;;19.79;47.21
42945;BME280;28584;42.636;23.294;2023-05-21T12:13:03;163853.91;;;19.86;48.12
42945;BME280;28584;42.636;23.294;2023-05-21T12:15:29;163839.09;;;19.80;49.07
42945;BME280;28584;42.636;23.294;2023-05-21T12:17:55;163828.34;;;19.76;48.76
42945;BME280;28584;42.636;23.294;2023-05-21T12:20:21;163841.84;;;19.81;48.86
42945;BME280;28584;42.636;23.294;2023-05-21T12:22:49;163833.75;;;19.78;49.17
42945;BME280;28584;42.636;23.294;2023-05-21T12:25:19;163887.56;;;19.98;49.68
42945;BME280;28584;42.636;23.294;2023-05-21T12:27:45;163927.97;;;20.13;50.28
42945;BME280;28584;42.636;23.294;2023-05-21T12:30:10;163960.22;;;20.25;49.83
42945;BME280;28584;42.636;23.294;2023-05-21T12:32:39;163961.59;;;20.26;49.34
42945;BME280;28584;42.636;23.294;2023-05-21T12:35:07;163995.22;;;20.38;49.04
42945;BME280;28584;42.636;23.294;2023-05-21T12:37:33;164001.94;;;20.41;49.33
42945;BME280;28584;42.636;23.294;2023-05-21T12:40:01;163871.41;;;19.92;50.25
42945;BME280;28584;42.636;23.294;2023-05-21T12:42:31;163909.06;;;20.06;50.88
42945;BME280;28584;42.636;23.294;2023-05-21T12:45:04;163901.00;;;20.03;51.24
42945;BME280;28584;42.636;23.294;2023-05-21T12:47:29;163868.75;;;19.91;51.10